createdAt,value
2019-04-25T00:01:13.569Z,51.30
2019-04-25T00:03:43.772Z,51.30
2019-04-25T00:06:14.492Z,51.50
2019-04-25T00:08:45.112Z,51.60
2019-04-25T00:11:15.636Z,51.80
2019-04-25T00:13:46.110Z,52.20
2019-04-25T00:16:18.145Z,52.30
2019-04-25T00:18:48.443Z,52.50
2019-04-25T00:21:25.918Z,52.80
2019-04-25T00:24:00.029Z,53.00
2019-04-25T00:26:48.534Z,53.20
2019-04-25T00:29:18.583Z,53.30
2019-04-25T00:31:49.248Z,53.60
2019-04-25T00:34:19.155Z,53.90
2019-04-25T00:36:48.946Z,53.90
2019-04-25T00:39:18.804Z,53.80
2019-04-25T00:41:49.346Z,54.90
2019-04-25T00:44:19.154Z,54.80
2019-04-25T00:46:51.481Z,56.00
2019-04-25T00:49:22.001Z,55.70
2019-04-25T00:51:53.247Z,55.20
2019-04-25T00:54:23.238Z,55.00
2019-04-25T00:56:53.848Z,54.90
2019-04-25T00:59:51.761Z,56.30
2019-04-25T01:02:32.495Z,57.30
2019-04-25T01:05:02.714Z,58.10
2019-04-25T01:07:34.444Z,58.40
2019-04-25T01:10:08.641Z,58.40
2019-04-25T01:12:38.463Z,58.20
2019-04-25T01:15:11.593Z,57.60
2019-04-25T01:17:41.779Z,56.80
2019-04-25T01:20:12.097Z,56.40
2019-04-25T01:22:41.920Z,56.40
2019-04-25T01:25:13.792Z,56.00
2019-04-25T01:27:46.278Z,55.70
2019-04-25T01:30:18.208Z,55.00
2019-04-25T01:32:48.341Z,55.00
2019-04-25T01:35:36.846Z,55.00
2019-04-25T01:38:38.221Z,55.00
2019-04-25T01:41:34.102Z,55.00
2019-04-25T01:44:08.953Z,54.90
2019-04-25T01:46:41.256Z,55.00
2019-04-25T01:49:11.131Z,55.00
2019-04-25T01:51:43.713Z,55.00
2019-04-25T01:54:14.101Z,55.00
2019-04-25T01:56:44.370Z,55.00
2019-04-25T01:59:15.227Z,55.00
2019-04-25T02:01:45.257Z,55.10
2019-04-25T02:04:15.271Z,55.00
2019-04-25T02:06:45.306Z,54.80
2019-04-25T02:09:16.895Z,55.00
2019-04-25T02:12:05.180Z,54.40
2019-04-25T02:14:35.567Z,54.50
2019-04-25T02:17:05.490Z,54.90
2019-04-25T02:19:35.824Z,54.90
2019-04-25T02:22:06.246Z,54.90
2019-04-25T02:24:36.080Z,54.80
2019-04-25T02:27:06.114Z,55.40
2019-04-25T02:29:35.926Z,55.80
2019-04-25T02:32:09.087Z,55.70
2019-04-25T02:34:37.689Z,55.50
2019-04-25T02:37:09.382Z,55.60
2019-04-25T02:39:39.467Z,55.50
2019-04-25T02:42:09.454Z,55.10
2019-04-25T02:44:44.582Z,55.60
2019-04-25T02:47:39.782Z,55.60
2019-04-25T02:50:47.481Z,55.70
2019-04-25T02:53:31.413Z,55.80
2019-04-25T02:56:01.768Z,55.30
2019-04-25T02:58:34.282Z,55.20
2019-04-25T03:01:16.565Z,55.30
2019-04-25T03:03:37.670Z,54.80
2019-04-25T03:06:09.517Z,55.20
2019-04-25T03:08:39.174Z,55.20
2019-04-25T03:11:09.416Z,54.80
2019-04-25T03:13:39.479Z,54.80
2019-04-25T03:16:11.012Z,54.80
2019-04-25T03:18:51.220Z,54.80
2019-04-25T03:21:25.712Z,54.70
2019-04-25T03:23:55.706Z,55.50
2019-04-25T03:26:25.493Z,55.00
2019-04-25T03:28:55.417Z,54.70
2019-04-25T03:31:27.240Z,54.80
2019-04-25T03:33:56.963Z,55.30
2019-04-25T03:36:26.809Z,55.30
2019-04-25T03:38:56.688Z,54.90
2019-04-25T03:41:26.598Z,54.70
2019-04-25T03:43:56.699Z,54.70
2019-04-25T03:46:26.609Z,54.70
2019-04-25T03:48:56.491Z,54.70
2019-04-25T03:51:26.338Z,54.70
2019-04-25T03:53:56.246Z,54.70
2019-04-25T03:56:26.055Z,54.60
2019-04-25T03:58:56.047Z,54.60
2019-04-25T04:01:26.077Z,54.60
2019-04-25T04:03:56.192Z,54.60
2019-04-25T04:06:26.146Z,54.60
2019-04-25T04:08:56.236Z,55.40
2019-04-25T04:11:26.262Z,55.50
2019-04-25T04:13:56.170Z,55.60
2019-04-25T04:16:30.879Z,56.00
2019-04-25T04:19:00.879Z,56.00
2019-04-25T04:21:40.755Z,56.60
2019-04-25T04:24:30.279Z,56.70
2019-04-25T04:27:09.541Z,58.50
2019-04-25T04:29:40.796Z,58.00
2019-04-25T04:32:12.586Z,57.70
2019-04-25T04:34:46.774Z,57.40
2019-04-25T04:37:17.494Z,57.50
2019-04-25T04:39:47.410Z,57.20
2019-04-25T04:42:17.927Z,57.10
2019-04-25T04:44:47.861Z,57.60
2019-04-25T04:47:18.585Z,57.90
2019-04-25T04:49:48.487Z,58.20
2019-04-25T04:52:18.900Z,58.60
2019-04-25T04:54:48.815Z,58.60
2019-04-25T04:57:30.144Z,59.20
2019-04-25T04:59:50.552Z,59.40
2019-04-25T05:02:45.744Z,60.00
2019-04-25T05:05:44.040Z,60.80
2019-04-25T05:08:19.080Z,61.00
2019-04-25T05:10:48.955Z,61.10
2019-04-25T05:13:26.905Z,60.20
2019-04-25T05:15:56.757Z,59.60
2019-04-25T05:18:37.461Z,59.00
2019-04-25T05:20:58.535Z,58.70
2019-04-25T05:23:28.382Z,58.70
2019-04-25T05:26:00.162Z,58.40
2019-04-25T05:28:30.226Z,58.10
2019-04-25T05:31:15.395Z,58.70
2019-04-25T05:33:44.177Z,59.30
2019-04-25T05:36:21.839Z,58.40
2019-04-25T05:38:59.253Z,58.30
2019-04-25T05:44:41.203Z,57.90
2019-04-25T05:47:11.394Z,57.70
2019-04-25T05:49:41.775Z,57.30
2019-04-25T05:52:15.981Z,57.40
2019-04-25T05:54:46.200Z,57.30
2019-04-25T05:57:16.642Z,56.50
2019-04-25T05:59:46.953Z,57.00
2019-04-25T06:02:17.943Z,56.70
2019-04-25T06:04:48.959Z,56.40
2019-04-25T06:07:19.397Z,56.40
2019-04-25T06:10:14.432Z,56.10
2019-04-25T06:12:53.675Z,56.60
2019-04-25T06:15:28.028Z,55.60
2019-04-25T06:18:17.881Z,55.80
2019-04-25T06:20:47.984Z,56.00
2019-04-25T06:25:55.056Z,55.80
2019-04-25T06:28:27.121Z,56.50
2019-04-25T06:33:31.866Z,54.90
2019-04-25T06:36:04.176Z,54.60
2019-04-25T06:38:34.413Z,53.70
2019-04-25T06:43:41.263Z,52.40
2019-04-25T06:46:21.021Z,51.50
2019-04-25T06:49:06.810Z,50.70
2019-04-25T06:51:49.854Z,49.90
2019-04-25T06:54:21.719Z,49.20
2019-04-25T06:56:53.855Z,48.80
2019-04-25T06:59:26.149Z,48.20
2019-04-25T07:01:56.469Z,46.80
2019-04-25T07:04:28.031Z,46.00
2019-04-25T07:07:09.747Z,46.50
2019-04-25T07:09:32.851Z,45.10
2019-04-25T07:12:03.653Z,44.10
2019-04-25T07:14:36.752Z,43.70
2019-04-25T07:17:06.012Z,44.10
2019-04-25T07:19:35.998Z,43.70
2019-04-25T07:22:06.034Z,42.30
2019-04-25T07:24:36.569Z,42.20
2019-04-25T07:27:44.778Z,41.80
2019-04-25T07:30:48.353Z,40.00
2019-04-25T07:33:13.861Z,39.30
2019-04-25T07:35:43.922Z,38.50
2019-04-25T07:38:14.120Z,39.10
2019-04-25T07:40:44.680Z,39.20
2019-04-25T07:43:14.975Z,38.40
2019-04-25T07:45:45.063Z,37.80
2019-04-25T07:48:15.957Z,36.40
2019-04-25T07:50:45.993Z,36.00
2019-04-25T07:53:16.131Z,35.90
2019-04-25T07:55:49.357Z,35.30
2019-04-25T07:58:19.356Z,35.20
2019-04-25T08:00:49.298Z,33.60
2019-04-25T08:03:19.393Z,34.00
2019-04-25T08:05:49.510Z,34.40
2019-04-25T08:08:19.694Z,34.10
2019-04-25T08:11:04.120Z,33.90
2019-04-25T08:13:49.819Z,33.90
2019-04-25T08:16:23.262Z,33.60
2019-04-25T08:18:54.045Z,32.70
2019-04-25T08:21:24.433Z,32.20
2019-04-25T08:23:55.398Z,32.40
2019-04-25T08:26:27.006Z,32.10
2019-04-25T08:28:57.832Z,31.10
2019-04-25T08:31:28.405Z,31.50
2019-04-25T08:33:58.455Z,30.60
2019-04-25T08:36:28.559Z,30.90
2019-04-25T08:38:58.807Z,30.50
2019-04-25T08:41:28.749Z,30.60
2019-04-25T08:43:58.635Z,29.50
2019-04-25T08:46:29.664Z,29.70
2019-04-25T08:49:28.109Z,29.40
2019-04-25T08:51:58.509Z,29.50
2019-04-25T08:55:00.220Z,29.20
2019-04-25T08:58:08.407Z,29.00
2019-04-25T09:01:00.772Z,29.20
2019-04-25T09:03:36.598Z,30.00
2019-04-25T09:06:06.666Z,29.30
2019-04-25T09:08:38.113Z,28.90
2019-04-25T09:11:08.501Z,28.30
2019-04-25T09:13:39.543Z,28.10
2019-04-25T09:16:09.975Z,28.10
2019-04-25T09:18:44.325Z,28.20
2019-04-25T09:21:15.359Z,27.80
2019-04-25T09:23:45.479Z,27.70
2019-04-25T09:26:15.761Z,28.10
2019-04-25T09:28:46.659Z,27.10
2019-04-25T09:31:16.654Z,27.60
2019-04-25T09:33:47.231Z,27.30
2019-04-25T09:36:17.241Z,27.10
2019-04-25T09:38:48.994Z,27.20
2019-04-25T09:41:18.957Z,27.30
2019-04-25T09:43:50.824Z,27.20
2019-04-25T09:46:26.311Z,28.10
2019-04-25T09:49:06.388Z,28.20
2019-04-25T09:51:49.485Z,27.50
2019-04-25T09:54:51.205Z,27.00
2019-04-25T09:57:44.837Z,26.60
2019-04-25T10:00:24.539Z,27.60
2019-04-25T10:02:55.539Z,27.40
2019-04-25T10:05:26.292Z,27.20
2019-04-25T10:07:56.283Z,26.50
2019-04-25T10:10:27.068Z,26.60
2019-04-25T10:12:57.030Z,26.90
2019-04-25T10:15:57.726Z,26.60
2019-04-25T10:18:27.554Z,26.60
2019-04-25T10:20:57.635Z,26.70
2019-04-25T10:23:27.492Z,26.50
2019-04-25T10:25:57.600Z,26.40
2019-04-25T10:28:28.438Z,25.90
2019-04-25T10:30:58.417Z,25.90
2019-04-25T10:33:28.475Z,25.60
2019-04-25T10:36:00.981Z,26.00
2019-04-25T10:38:30.221Z,25.90
2019-04-25T10:41:00.677Z,25.70
2019-04-25T10:43:30.704Z,25.50
2019-04-25T10:46:00.976Z,25.10
2019-04-25T10:48:31.130Z,26.60
2019-04-25T10:51:01.075Z,25.70
2019-04-25T10:53:31.341Z,24.70
2019-04-25T10:56:05.946Z,24.90
2019-04-25T10:58:38.238Z,24.20
2019-04-25T11:01:18.033Z,24.50
2019-04-25T11:03:58.193Z,25.40
2019-04-25T11:06:29.341Z,24.70
2019-04-25T11:08:59.219Z,24.60
2019-04-25T11:11:31.442Z,24.20
2019-04-25T11:14:03.286Z,23.60
2019-04-25T11:16:33.455Z,23.60
2019-04-25T11:19:03.922Z,22.10
2019-04-25T11:21:36.656Z,21.80
2019-04-25T11:24:06.736Z,21.90
2019-04-25T11:26:36.805Z,21.30
2019-04-25T11:29:06.939Z,21.10
2019-04-25T11:31:47.361Z,21.40
2019-04-25T11:34:18.241Z,21.40
2019-04-25T11:36:48.502Z,21.20
2019-04-25T11:39:31.982Z,21.30
2019-04-25T11:42:15.943Z,21.30
2019-04-25T11:44:45.987Z,22.40
2019-04-25T11:47:16.067Z,21.30
2019-04-25T11:49:47.716Z,21.30
2019-04-25T11:52:27.509Z,21.30
2019-04-25T11:54:50.270Z,21.40
2019-04-25T11:57:20.245Z,20.90
2019-04-25T11:59:50.611Z,20.50
2019-04-25T12:02:21.557Z,20.60
2019-04-25T12:04:51.536Z,19.90
2019-04-25T12:07:21.429Z,19.20
2019-04-25T12:09:52.239Z,19.10
2019-04-25T12:12:23.664Z,18.70
2019-04-25T12:14:55.294Z,18.10
2019-04-25T12:17:25.863Z,19.10
2019-04-25T12:19:56.230Z,18.50
2019-04-25T12:22:26.253Z,18.30
2019-04-25T12:24:56.140Z,17.70
2019-04-25T12:27:25.988Z,18.50
2019-04-25T12:29:55.870Z,19.40
2019-04-25T12:32:25.746Z,18.50
2019-04-25T12:34:56.095Z,17.90
2019-04-25T12:37:26.268Z,17.40
2019-04-25T12:39:56.517Z,17.20
2019-04-25T12:42:26.405Z,16.70
2019-04-25T12:45:26.690Z,16.40
2019-04-25T12:47:59.200Z,14.00
2019-04-25T12:50:28.769Z,14.50
2019-04-25T12:52:58.790Z,13.60
2019-04-25T12:55:28.988Z,14.90
2019-04-25T12:57:59.306Z,13.90
2019-04-25T13:00:29.471Z,14.20
2019-04-25T13:02:59.486Z,14.00
2019-04-25T13:05:29.386Z,13.90
2019-04-25T13:08:00.131Z,12.60
2019-04-25T13:10:31.095Z,12.60
2019-04-25T13:13:01.184Z,13.00
2019-04-25T13:15:31.400Z,13.80
2019-04-25T13:18:01.484Z,12.40
2019-04-25T13:20:31.348Z,12.40
2019-04-25T13:23:03.171Z,13.00
2019-04-25T13:25:34.269Z,14.00
2019-04-25T13:28:26.868Z,13.10
2019-04-25T13:31:28.289Z,13.80
2019-04-25T13:34:05.934Z,13.40
2019-04-25T13:36:36.155Z,14.00
2019-04-25T13:39:14.711Z,13.40
2019-04-25T13:41:45.047Z,13.90
2019-04-25T13:44:15.062Z,13.90
2019-04-25T13:46:44.974Z,13.00
2019-04-25T13:49:14.920Z,13.00
2019-04-25T13:51:44.929Z,12.20
2019-04-25T13:54:14.993Z,13.40
2019-04-25T13:56:45.015Z,12.80
2019-04-25T13:59:15.199Z,12.70
2019-04-25T14:01:45.924Z,12.50
2019-04-25T14:04:15.948Z,12.50
2019-04-25T14:06:46.035Z,12.40
2019-04-25T14:09:17.729Z,13.10
2019-04-25T14:11:47.733Z,13.60
2019-04-25T14:14:17.913Z,14.20
2019-04-25T14:17:13.926Z,12.60
2019-04-25T14:20:09.640Z,13.20
2019-04-25T14:22:39.890Z,12.70
2019-04-25T14:25:11.260Z,11.60
2019-04-25T14:27:43.651Z,12.00
2019-04-25T14:30:17.465Z,12.80
2019-04-25T14:32:47.960Z,12.40
2019-04-25T14:35:18.126Z,12.30
2019-04-25T14:37:48.117Z,12.90
2019-04-25T14:40:17.934Z,12.50
2019-04-25T14:42:51.921Z,13.00
2019-04-25T14:45:26.633Z,12.70
2019-04-25T14:47:56.803Z,12.60
2019-04-25T14:50:29.998Z,12.70
2019-04-25T14:52:59.985Z,12.30
2019-04-25T14:55:47.341Z,11.40
2019-04-25T14:58:18.158Z,11.90
2019-04-25T15:00:49.370Z,15.40
2019-04-25T15:03:19.645Z,18.50
2019-04-25T15:05:49.583Z,18.40
2019-04-25T15:08:19.845Z,16.70
2019-04-25T15:10:49.947Z,13.90
2019-04-25T15:13:20.140Z,13.50
2019-04-25T15:15:50.306Z,14.40
2019-04-25T15:18:20.345Z,13.40
2019-04-25T15:20:50.315Z,14.00
2019-04-25T15:23:20.447Z,12.70
2019-04-25T15:25:51.424Z,12.20
2019-04-25T15:28:21.359Z,14.50
2019-04-25T15:30:51.396Z,13.30
2019-04-25T15:33:21.467Z,13.40
2019-04-25T15:35:57.352Z,14.60
2019-04-25T15:38:48.534Z,16.20
2019-04-25T15:41:47.111Z,15.40
2019-04-25T15:44:31.073Z,15.40
2019-04-25T15:47:02.176Z,15.10
2019-04-25T15:49:32.176Z,15.40
2019-04-25T15:52:03.706Z,14.10
2019-04-25T15:54:33.944Z,15.20
2019-04-25T15:57:04.278Z,14.50
2019-04-25T15:59:34.913Z,14.10
2019-04-25T16:02:08.247Z,14.30
2019-04-25T16:04:38.759Z,14.10
2019-04-25T16:07:08.789Z,14.40
2019-04-25T16:09:39.271Z,14.00
2019-04-25T16:12:10.056Z,14.20
2019-04-25T16:14:41.198Z,14.60
2019-04-25T16:17:12.171Z,14.50
2019-04-25T16:19:42.420Z,14.60
2019-04-25T16:22:12.365Z,14.40
2019-04-25T16:24:42.356Z,14.90
2019-04-25T16:27:12.546Z,14.70
2019-04-25T16:29:42.706Z,15.00
2019-04-25T16:32:20.748Z,15.00
2019-04-25T16:34:49.962Z,14.80
2019-04-25T16:37:20.196Z,15.20
2019-04-25T16:39:50.275Z,15.70
2019-04-25T16:42:20.802Z,15.50
2019-04-25T16:44:50.714Z,15.60
2019-04-25T16:47:22.878Z,15.90
2019-04-25T16:49:53.020Z,15.90
2019-04-25T16:52:23.017Z,15.90
2019-04-25T16:54:53.026Z,16.20
2019-04-25T16:57:23.079Z,16.50
2019-04-25T16:59:53.103Z,16.30
2019-04-25T17:02:35.464Z,16.50
2019-04-25T17:05:04.379Z,16.70
2019-04-25T17:07:34.682Z,17.00
2019-04-25T17:10:05.150Z,17.30
2019-04-25T17:12:36.421Z,17.60
2019-04-25T17:15:30.500Z,17.70
2019-04-25T17:18:07.741Z,18.00
2019-04-25T17:20:42.422Z,18.20
2019-04-25T17:23:12.591Z,18.20
2019-04-25T17:25:42.811Z,18.40
2019-04-25T17:28:12.915Z,18.80
2019-04-25T17:31:21.811Z,18.80
2019-04-25T17:34:30.767Z,18.60
2019-04-25T17:37:18.326Z,18.90
2019-04-25T17:39:51.257Z,18.80
2019-04-25T17:42:21.926Z,19.00
2019-04-25T17:44:51.865Z,18.90
2019-04-25T17:47:21.776Z,19.00
2019-04-25T17:49:51.900Z,19.70
2019-04-25T17:52:22.422Z,18.90
2019-04-25T17:54:52.374Z,19.00
2019-04-25T17:57:22.239Z,18.90
2019-04-25T17:59:52.490Z,19.10
2019-04-25T18:02:24.612Z,19.00
2019-04-25T18:04:54.699Z,19.20
2019-04-25T18:07:24.587Z,19.30
2019-04-25T18:09:54.482Z,19.30
2019-04-25T18:12:24.836Z,19.50
2019-04-25T18:14:59.025Z,19.70
2019-04-25T18:17:28.969Z,26.20
2019-04-25T18:20:04.522Z,30.90
2019-04-25T18:22:56.779Z,38.80
2019-04-25T18:25:49.150Z,41.10
2019-04-25T18:28:36.141Z,41.90
2019-04-25T18:31:08.099Z,41.40
2019-04-25T18:33:38.091Z,41.30
2019-04-25T18:36:37.728Z,40.90
2019-04-25T18:39:19.981Z,41.00
2019-04-25T18:41:55.561Z,41.30
2019-04-25T18:44:29.729Z,41.50
2019-04-25T18:46:59.999Z,42.20
2019-04-25T18:49:30.184Z,42.00
2019-04-25T18:52:05.481Z,41.80
2019-04-25T18:55:00.998Z,41.90
2019-04-25T18:57:42.055Z,41.90
2019-04-25T19:00:30.732Z,42.20
2019-04-25T19:03:22.984Z,42.70
2019-04-25T19:06:14.191Z,42.70
2019-04-25T19:08:45.025Z,43.20
2019-04-25T19:11:14.990Z,43.30
2019-04-25T19:13:45.281Z,43.20
2019-04-25T19:16:15.362Z,43.20
2019-04-25T19:18:46.714Z,43.90
2019-04-25T19:21:17.030Z,45.10
2019-04-25T19:23:48.061Z,45.50
2019-04-25T19:26:18.065Z,46.70
2019-04-25T19:28:48.376Z,47.10
2019-04-25T19:31:18.360Z,47.60
2019-04-25T19:33:48.232Z,47.70
2019-04-25T19:36:19.340Z,48.00
2019-04-25T19:38:53.966Z,48.50
2019-04-25T19:41:30.174Z,49.40
2019-04-25T19:44:04.139Z,50.10
2019-04-25T19:46:44.832Z,50.50
2019-04-25T19:49:15.452Z,50.40
2019-04-25T19:51:45.806Z,50.60
2019-04-25T19:54:16.128Z,50.90
2019-04-25T19:56:46.029Z,51.10
2019-04-25T19:59:16.584Z,51.70
2019-04-25T20:01:48.088Z,51.80
2019-04-25T20:04:28.212Z,51.70
2019-04-25T20:07:11.611Z,50.40
2019-04-25T20:10:06.524Z,50.20
2019-04-25T20:12:51.838Z,50.40
2019-04-25T20:15:21.204Z,50.50
2019-04-25T20:17:52.023Z,50.20
2019-04-25T20:20:22.523Z,50.00
2019-04-25T20:22:52.733Z,50.00
2019-04-25T20:25:22.849Z,49.40
2019-04-25T20:27:52.885Z,49.70
2019-04-25T20:30:23.693Z,49.10
2019-04-25T20:32:54.158Z,48.80
2019-04-25T20:35:24.229Z,48.80
2019-04-25T20:37:54.298Z,48.50
2019-04-25T20:40:27.996Z,49.20
2019-04-25T20:42:58.022Z,48.50
2019-04-25T20:45:27.925Z,48.40
2019-04-25T20:47:58.290Z,48.40
2019-04-25T20:50:28.457Z,48.50
2019-04-25T20:52:58.395Z,48.40
2019-04-25T20:55:28.279Z,48.40
2019-04-25T20:57:58.618Z,49.00
2019-04-25T21:00:41.707Z,49.30
2019-04-25T21:03:11.612Z,49.60
2019-04-25T21:05:42.217Z,50.10
2019-04-25T21:08:12.094Z,49.60
2019-04-25T21:10:41.921Z,50.20
2019-04-25T21:13:16.982Z,49.70
2019-04-25T21:16:12.548Z,49.90
2019-04-25T21:18:53.863Z,50.00
2019-04-25T21:21:24.372Z,49.60
2019-04-25T21:23:54.885Z,49.80
2019-04-25T21:26:27.498Z,50.20
2019-04-25T21:29:00.228Z,50.30
2019-04-25T21:31:30.115Z,50.90
2019-04-25T21:33:59.963Z,51.00
2019-04-25T21:36:30.399Z,50.90
2019-04-25T21:39:00.408Z,50.70
2019-04-25T21:41:56.589Z,50.80
2019-04-25T21:44:31.746Z,51.40
2019-04-25T21:47:03.233Z,51.70
2019-04-25T21:49:33.397Z,51.70
2019-04-25T21:52:03.361Z,51.60
2019-04-25T21:54:33.731Z,51.80
2019-04-25T21:57:07.404Z,52.00
2019-04-25T21:59:37.281Z,52.40
2019-04-25T22:02:08.003Z,52.70
2019-04-25T22:04:44.031Z,52.70
2019-04-25T22:07:12.568Z,52.80
2019-04-25T22:09:54.620Z,52.80
2019-04-25T22:12:25.805Z,52.60
2019-04-25T22:15:06.195Z,52.60
2019-04-25T22:17:36.424Z,53.30
2019-04-25T22:20:11.483Z,53.60
2019-04-25T22:22:44.720Z,53.70
2019-04-25T22:25:15.276Z,53.80
2019-04-25T22:27:48.950Z,54.40
2019-04-25T22:30:19.742Z,54.30
2019-04-25T22:33:12.296Z,54.30
2019-04-25T22:36:12.546Z,54.00
2019-04-25T22:38:46.827Z,54.10
2019-04-25T22:41:19.560Z,53.90
2019-04-25T22:43:53.051Z,53.90
2019-04-25T22:46:27.924Z,54.30
2019-04-25T22:48:55.018Z,54.30
2019-04-25T22:51:24.817Z,53.70
2019-04-25T22:53:55.428Z,53.90
2019-04-25T22:56:25.263Z,54.00
2019-04-25T22:58:55.197Z,54.00
2019-04-25T23:01:49.970Z,53.90
2019-04-25T23:04:32.060Z,53.90
2019-04-25T23:07:02.544Z,54.00
2019-04-25T23:09:35.076Z,54.40
2019-04-25T23:12:06.640Z,54.60
2019-04-25T23:14:37.175Z,55.10
2019-04-25T23:17:07.357Z,55.50
2019-04-25T23:19:37.300Z,55.70
2019-04-25T23:22:07.435Z,55.30
2019-04-25T23:24:55.015Z,55.40
2019-04-25T23:27:43.523Z,55.60
2019-04-25T23:30:16.420Z,55.70
2019-04-25T23:32:46.266Z,55.70
2019-04-25T23:35:28.572Z,55.80
2019-04-25T23:37:48.322Z,55.90
2019-04-25T23:40:18.259Z,55.80
2019-04-25T23:42:48.029Z,55.60
2019-04-25T23:45:23.262Z,54.90
2019-04-25T23:47:53.086Z,54.70
2019-04-25T23:50:23.247Z,54.70
2019-04-25T23:52:53.060Z,54.80
2019-04-25T23:55:24.557Z,54.90
2019-04-25T23:57:54.468Z,54.80
